Time;durP1;ratioP1;P1;durP2;ratioP2;P2;SDS_P1;SDS_P2;PMS_P1;PMS_P2;Temp;Humidity;BMP_temperature;BMP_pressure;BME280_temperature;BME280_humidity;BME280_pressure;Samples;Min_cycle;Max_cycle;Signal;HPM_P1;HPM_P2
2022/01/30 00:02:14;;;;;;;0.43;0.43;;;8.40;97.20;;;;;;5058810;28;20496;-48
2022/01/30 00:04:39;;;;;;;4.65;0.90;;;8.30;97.20;;;;;;5060436;28;20086;-48
2022/01/30 00:07:05;;;;;;;0.50;0.50;;;8.30;97.20;;;;;;5062053;28;20274;-48
2022/01/30 00:09:31;;;;;;;1.13;0.60;;;8.40;97.20;;;;;;5058285;28;20454;-49
2022/01/30 00:12:01;;;;;;;0.40;0.40;;;8.30;97.30;;;;;;5053935;28;20039;-49
2022/01/30 00:14:30;;;;;;;0.50;0.50;;;8.30;97.20;;;;;;5062750;28;20039;-49
2022/01/30 00:17:22;;;;;;;0.20;0.20;;;8.30;97.10;;;;;;5060267;28;20033;-48
2022/01/30 00:19:55;;;;;;;0.47;0.47;;;8.30;97.10;;;;;;5060777;28;20036;-49
2022/01/30 00:24:56;;;;;;;0.52;0.52;;;8.30;97.20;;;;;;5056162;28;20127;-49
2022/01/30 00:27:34;;;;;;;0.43;0.40;;;8.30;97.10;;;;;;5060232;28;20029;-48
2022/01/30 00:29:59;;;;;;;0.35;0.32;;;8.30;97.20;;;;;;5060471;28;20033;-48
2022/01/30 00:32:25;;;;;;;0.40;0.40;;;8.30;97.30;;;;;;5059566;28;20029;-49
2022/01/30 00:34:51;;;;;;;0.50;0.50;;;8.30;97.30;;;;;;5061683;28;20468;-48
2022/01/30 00:37:18;;;;;;;0.35;0.35;;;8.30;97.10;;;;;;5059743;28;20186;-48
2022/01/30 00:39:43;;;;;;;0.73;0.45;;;8.30;97.30;;;;;;5057235;28;20025;-48
2022/01/30 00:42:09;;;;;;;0.50;0.50;;;8.30;97.20;;;;;;5058986;28;20030;-48
2022/01/30 00:44:35;;;;;;;0.50;0.40;;;8.30;97.30;;;;;;5054830;28;20021;-48
2022/01/30 00:47:03;;;;;;;0.30;0.30;;;8.30;97.20;;;;;;5060776;28;20075;-49
2022/01/30 00:49:28;;;;;;;0.40;0.40;;;8.30;97.20;;;;;;5059567;28;20033;-49
2022/01/30 00:51:54;;;;;;;0.65;0.40;;;8.30;97.20;;;;;;5060636;28;20029;-48
2022/01/30 00:54:20;;;;;;;0.20;0.20;;;8.30;97.30;;;;;;5056600;28;20401;-48
2022/01/30 00:56:45;;;;;;;1.75;0.93;;;8.40;97.40;;;;;;5054641;28;20021;-48
2022/01/30 00:59:11;;;;;;;0.20;0.20;;;8.40;97.30;;;;;;5060426;28;20506;-48
2022/01/30 01:01:37;;;;;;;0.40;0.40;;;8.40;97.30;;;;;;5059188;28;20024;-49
2022/01/30 01:04:03;;;;;;;0.30;0.30;;;8.40;97.40;;;;;;5059227;28;20064;-48
2022/01/30 01:06:28;;;;;;;0.50;0.50;;;8.30;97.30;;;;;;5057974;28;20024;-48
2022/01/30 01:09:02;;;;;;;0.43;0.43;;;8.30;97.20;;;;;;5061983;28;20051;-48
2022/01/30 01:24:53;;;;;;;0.30;0.30;;;8.30;97.30;;;;;;5058791;28;20036;-48
2022/01/30 01:27:18;;;;;;;0.60;0.60;;;8.30;97.50;;;;;;5059230;28;20421;-48
2022/01/30 01:29:45;;;;;;;0.60;0.40;;;8.30;97.40;;;;;;5059359;28;20024;-48
2022/01/30 01:32:10;;;;;;;0.45;0.45;;;8.30;97.40;;;;;;5058649;28;20112;-49
2022/01/30 01:34:38;;;;;;;0.40;0.40;;;8.30;97.40;;;;;;5060405;28;20162;-48
2022/01/30 01:37:07;;;;;;;0.30;0.30;;;8.30;97.40;;;;;;5059221;28;20040;-49
2022/01/30 01:39:33;;;;;;;0.30;0.30;;;8.40;97.40;;;;;;5054427;28;20458;-49
2022/01/30 01:41:59;;;;;;;0.40;0.40;;;8.40;97.40;;;;;;5057109;28;20034;-49
2022/01/30 01:44:36;;;;;;;0.45;0.45;;;8.30;97.40;;;;;;5059402;28;20021;-49
2022/01/30 01:47:02;;;;;;;0.40;0.40;;;8.40;97.40;;;;;;5058830;28;20464;-49
2022/01/30 01:49:31;;;;;;;0.65;0.65;;;8.40;97.60;;;;;;5058401;28;20112;-48
2022/01/30 01:52:30;;;;;;;0.40;0.40;;;8.30;97.40;;;;;;5060659;28;20082;-48
2022/01/30 01:54:58;;;;;;;0.50;0.50;;;8.30;97.50;;;;;;5057986;28;20037;-48
2022/01/30 01:57:26;;;;;;;0.63;0.63;;;8.30;97.40;;;;;;5055826;28;20029;-49
2022/01/30 01:59:52;;;;;;;0.45;0.45;;;8.40;97.40;;;;;;5063606;28;20035;-49
2022/01/30 02:02:18;;;;;;;0.70;0.70;;;8.40;97.50;;;;;;5062598;28;20025;-49
2022/01/30 02:04:45;;;;;;;0.30;0.30;;;8.40;97.50;;;;;;5061942;28;20276;-49
2022/01/30 02:09:41;;;;;;;0.80;0.50;;;8.30;97.40;;;;;;5062244;28;20120;-48
2022/01/30 02:12:15;;;;;;;6.22;0.45;;;8.30;97.60;;;;;;5058640;28;20461;-49
2022/01/30 02:28:08;;;;;;;0.55;0.55;;;8.30;97.50;;;;;;5063945;28;20418;-48
2022/01/30 02:30:37;;;;;;;0.35;0.35;;;8.30;97.70;;;;;;5065133;28;20063;-48
2022/01/30 02:33:03;;;;;;;0.77;0.70;;;8.30;97.50;;;;;;5062895;28;20348;-48
2022/01/30 02:35:29;;;;;;;0.40;0.40;;;8.30;97.60;;;;;;5062558;28;20024;-48
2022/01/30 02:37:57;;;;;;;0.50;0.50;;;8.30;97.80;;;;;;5060710;28;20033;-48
2022/01/30 02:40:23;;;;;;;0.60;0.60;;;8.30;97.70;;;;;;5058469;28;20029;-48
2022/01/30 02:42:51;;;;;;;0.47;0.43;;;8.40;97.90;;;;;;5057792;28;20115;-48
2022/01/30 02:45:19;;;;;;;0.50;0.50;;;8.30;97.80;;;;;;5063190;28;20395;-48
2022/01/30 02:50:50;;;;;;;0.90;0.50;;;8.40;97.80;;;;;;5064262;28;20028;-48
2022/01/30 02:53:16;;;;;;;0.65;0.50;;;8.30;97.70;;;;;;5063531;28;20023;-48
2022/01/30 02:55:42;;;;;;;0.70;0.70;;;8.30;97.70;;;;;;5060739;28;20119;-48
2022/01/30 02:58:08;;;;;;;0.40;0.40;;;8.30;97.90;;;;;;5060583;28;20512;-48
2022/01/30 03:00:33;;;;;;;0.75;0.50;;;8.40;97.90;;;;;;5064476;28;20469;-49
2022/01/30 03:02:59;;;;;;;0.60;0.60;;;8.30;97.80;;;;;;5062402;28;20032;-48
2022/01/30 03:05:25;;;;;;;0.40;0.40;;;8.40;97.90;;;;;;5053307;28;20044;-49
2022/01/30 03:07:52;;;;;;;13.57;0.85;;;8.40;97.90;;;;;;5064009;28;20094;-48
2022/01/30 03:10:19;;;;;;;0.30;0.30;;;8.30;98.00;;;;;;5061314;28;20040;-48
2022/01/30 03:12:45;;;;;;;0.77;0.40;;;8.30;97.90;;;;;;5059486;28;20366;-49
2022/01/30 03:15:11;;;;;;;0.65;0.60;;;8.40;97.70;;;;;;5058479;28;20452;-48
2022/01/30 03:17:36;;;;;;;0.45;0.45;;;8.30;97.90;;;;;;5064062;28;20032;-49
2022/01/30 03:20:04;;;;;;;0.40;0.40;;;8.30;98.00;;;;;;5061493;28;20530;-48
2022/01/30 03:22:29;;;;;;;0.43;0.43;;;8.30;97.90;;;;;;5061546;28;20032;-48
2022/01/30 03:24:55;;;;;;;0.80;0.60;;;8.40;97.90;;;;;;5063464;28;20331;-48
2022/01/30 03:27:21;;;;;;;0.50;0.40;;;8.40;98.00;;;;;;5056737;28;20051;-49
2022/01/30 03:29:51;;;;;;;0.50;0.50;;;8.40;98.10;;;;;;5063669;28;20027;-48
2022/01/30 03:32:17;;;;;;;;;;;8.40;97.90;;;;;;5060714;28;20370;-49
2022/01/30 03:34:43;;;;;;;2.05;0.40;;;8.40;98.00;;;;;;5062426;28;19905;-49
2022/01/30 03:37:09;;;;;;;0.40;0.40;;;8.40;98.20;;;;;;5061144;28;20039;-48
2022/01/30 03:39:34;;;;;;;1.45;0.60;;;8.40;98.20;;;;;;5061576;28;20029;-48
2022/01/30 03:42:00;;;;;;;0.28;0.28;;;8.40;98.10;;;;;;5056956;28;20354;-48
2022/01/30 03:44:26;;;;;;;0.40;0.40;;;8.40;98.20;;;;;;5061240;28;20036;-48
2022/01/30 03:46:51;;;;;;;1.17;0.60;;;8.40;98.20;;;;;;5060329;28;20029;-48
2022/01/30 03:49:17;;;;;;;0.30;0.30;;;8.30;98.20;;;;;;5060121;28;20430;-48
2022/01/30 03:51:42;;;;;;;0.20;0.20;;;8.40;98.10;;;;;;5062349;28;20074;-48
2022/01/30 03:54:08;;;;;;;0.40;0.40;;;8.40;98.20;;;;;;5059106;28;20024;-48
2022/01/30 03:56:34;;;;;;;0.50;0.50;;;8.40;98.20;;;;;;5052941;28;20029;-48
2022/01/30 03:58:59;;;;;;;0.40;0.40;;;8.40;98.30;;;;;;5059941;28;20029;-48
2022/01/30 04:01:25;;;;;;;0.50;0.50;;;8.40;98.20;;;;;;5059835;28;20373;-49
2022/01/30 04:03:50;;;;;;;0.50;0.50;;;8.40;98.10;;;;;;5062869;28;20033;-49
2022/01/30 04:06:16;;;;;;;0.50;0.50;;;8.40;98.20;;;;;;5057291;28;20067;-49
2022/01/30 04:08:43;;;;;;;0.30;0.30;;;8.40;98.20;;;;;;5061365;28;20059;-48
2022/01/30 04:11:09;;;;;;;0.50;0.50;;;8.40;98.20;;;;;;5058811;28;20405;-48
2022/01/30 04:13:35;;;;;;;0.80;0.52;;;8.40;98.10;;;;;;5058795;28;20086;-48
2022/01/30 04:16:01;;;;;;;0.40;0.40;;;8.40;98.30;;;;;;5057014;28;20067;-48
2022/01/30 04:18:27;;;;;;;0.40;0.40;;;8.40;98.30;;;;;;5063101;28;20048;-49
2022/01/30 04:20:52;;;;;;;0.60;0.60;;;8.40;98.30;;;;;;5061112;28;20021;-49
2022/01/30 04:23:18;;;;;;;0.40;0.40;;;8.40;98.20;;;;;;5061305;28;20330;-49
2022/01/30 04:25:44;;;;;;;1.85;0.70;;;8.40;98.20;;;;;;5060961;28;20116;-48
2022/01/30 04:28:09;;;;;;;0.80;0.70;;;8.40;98.40;;;;;;5062188;28;20060;-49
2022/01/30 04:30:35;;;;;;;0.40;0.40;;;8.40;98.30;;;;;;5062348;28;20025;-48
2022/01/30 04:33:01;;;;;;;0.43;0.43;;;8.40;98.40;;;;;;5060894;28;20020;-48
2022/01/30 04:35:30;;;;;;;0.77;0.50;;;8.40;98.40;;;;;;5063713;28;20066;-49
2022/01/30 05:09:41;;;;;;;0.75;0.60;;;8.40;98.50;;;;;;5058993;28;20063;-48
2022/01/30 05:12:08;;;;;;;0.73;0.68;;;8.40;98.60;;;;;;5056153;28;20029;-48
2022/01/30 05:14:36;;;;;;;0.80;0.60;;;8.40;98.50;;;;;;5061961;28;20305;-48
2022/01/30 05:17:04;;;;;;;0.70;0.70;;;8.40;98.50;;;;;;5056326;28;20028;-48
2022/01/30 05:19:30;;;;;;;0.50;0.50;;;8.40;98.50;;;;;;5060975;28;20468;-49
2022/01/30 05:21:56;;;;;;;2.50;0.50;;;8.40;98.50;;;;;;5058172;28;20327;-49
2022/01/30 05:24:21;;;;;;;0.70;0.52;;;8.40;98.50;;;;;;5060808;28;20036;-48
2022/01/30 05:26:48;;;;;;;0.60;0.47;;;8.40;98.60;;;;;;5059278;28;20133;-49
2022/01/30 05:29:16;;;;;;;0.50;0.30;;;8.40;98.60;;;;;;5058376;28;20043;-49
2022/01/30 05:31:44;;;;;;;2.70;0.40;;;8.40;98.60;;;;;;5059736;28;20457;-48
2022/01/30 05:34:10;;;;;;;0.47;0.47;;;8.40;98.90;;;;;;5058878;28;20025;-48
2022/01/30 05:36:39;;;;;;;0.52;0.50;;;8.40;98.60;;;;;;5062126;28;20021;-49
2022/01/30 05:39:06;;;;;;;0.50;0.50;;;8.40;98.60;;;;;;5061457;28;20045;-49
2022/01/30 05:41:32;;;;;;;0.47;0.47;;;8.40;98.60;;;;;;5051855;28;20024;-48
2022/01/30 05:44:07;;;;;;;0.40;0.40;;;8.40;98.60;;;;;;5057062;28;20511;-48
2022/01/30 05:46:41;;;;;;;0.50;0.45;;;8.40;98.60;;;;;;5059923;28;20441;-48
2022/01/30 05:49:07;;;;;;;3.42;0.50;;;8.40;98.60;;;;;;5058186;28;20421;-48
2022/01/30 05:51:33;;;;;;;0.40;0.40;;;8.40;98.60;;;;;;5058810;28;20047;-49
2022/01/30 05:53:58;;;;;;;0.40;0.40;;;8.40;98.60;;;;;;5061802;28;20266;-49
2022/01/30 05:56:24;;;;;;;0.30;0.30;;;8.40;98.70;;;;;;5057124;28;20115;-48
2022/01/30 05:58:49;;;;;;;0.30;0.30;;;8.40;98.60;;;;;;5055665;28;20116;-49
2022/01/30 06:01:15;;;;;;;0.38;0.38;;;8.40;98.70;;;;;;5061101;28;20063;-48
2022/01/30 06:03:41;;;;;;;2.40;0.40;;;8.40;98.70;;;;;;5058696;28;20025;-48
2022/01/30 06:06:08;;;;;;;0.30;0.30;;;8.40;98.70;;;;;;5057144;28;20025;-48
2022/01/30 06:08:58;;;;;;;0.52;0.45;;;8.40;98.70;;;;;;5057990;28;20129;-48
2022/01/30 06:11:23;;;;;;;0.50;0.50;;;8.40;98.60;;;;;;5058230;28;20036;-49
2022/01/30 06:13:49;;;;;;;0.82;0.52;;;8.30;98.70;;;;;;5056478;28;20029;-48
2022/01/30 06:16:16;;;;;;;0.43;0.43;;;8.40;98.70;;;;;;5061475;28;20445;-48
2022/01/30 06:18:43;;;;;;;1.45;0.40;;;8.40;98.70;;;;;;5056975;28;20366;-49
2022/01/30 06:21:09;;;;;;;0.82;0.40;;;8.40;99.00;;;;;;5059024;28;20087;-48
2022/01/30 06:23:36;;;;;;;0.52;0.52;;;8.40;98.70;;;;;;5060659;28;20035;-48
2022/01/30 06:26:03;;;;;;;0.70;0.70;;;8.40;98.70;;;;;;5059847;28;20067;-48
2022/01/30 06:28:28;;;;;;;0.90;0.82;;;8.40;98.70;;;;;;5056037;28;20028;-48
2022/01/30 06:30:54;;;;;;;0.50;0.43;;;8.40;98.70;;;;;;5058482;28;20033;-49
2022/01/30 06:33:20;;;;;;;0.40;0.40;;;8.40;98.70;;;;;;5053805;28;20407;-48
2022/01/30 06:35:47;;;;;;;0.50;0.50;;;8.40;98.70;;;;;;5061015;28;20024;-48
2022/01/30 06:38:12;;;;;;;1.38;0.90;;;8.40;98.80;;;;;;5058407;28;20040;-48
2022/01/30 06:40:38;;;;;;;0.60;0.60;;;8.40;98.70;;;;;;5057677;28;20399;-48
2022/01/30 06:43:04;;;;;;;1.05;0.73;;;8.40;98.80;;;;;;5055154;28;20044;-48
2022/01/30 06:45:30;;;;;;;1.05;0.47;;;8.40;98.70;;;;;;5060488;28;20047;-48
2022/01/30 06:47:55;;;;;;;3.35;0.77;;;8.40;98.80;;;;;;5062849;28;20067;-48
2022/01/30 06:50:21;;;;;;;6.50;1.05;;;8.40;98.80;;;;;;5059484;28;20059;-48
2022/01/30 06:52:47;;;;;;;2.42;0.77;;;8.40;98.80;;;;;;5059841;28;20103;-48
2022/01/30 06:55:13;;;;;;;2.33;0.70;;;8.40;98.80;;;;;;5064906;28;20035;-49
2022/01/30 06:57:43;;;;;;;3.78;1.30;;;8.40;98.80;;;;;;5059536;28;20037;-48
2022/01/30 07:00:10;;;;;;;2.28;0.95;;;8.40;98.80;;;;;;5057618;28;20029;-48
2022/01/30 07:02:35;;;;;;;0.88;0.80;;;8.40;98.80;;;;;;5063546;28;20020;-48
2022/01/30 07:05:01;;;;;;;0.95;0.85;;;8.40;98.80;;;;;;5058632;28;20029;-48
2022/01/30 07:07:27;;;;;;;4.65;1.20;;;8.40;98.80;;;;;;5061146;28;20467;-48
2022/01/30 07:09:52;;;;;;;1.00;0.80;;;8.40;98.80;;;;;;5061260;28;20485;-48
2022/01/30 07:12:18;;;;;;;0.98;0.90;;;8.40;98.80;;;;;;5060034;28;20396;-48
2022/01/30 07:14:44;;;;;;;4.72;1.10;;;8.40;98.90;;;;;;5057271;28;20031;-48
2022/01/30 07:17:09;;;;;;;1.98;0.73;;;8.40;98.90;;;;;;5059793;28;20407;-49
2022/01/30 07:19:35;;;;;;;0.95;0.88;;;8.40;98.90;;;;;;5059909;28;20033;-48
2022/01/30 07:22:00;;;;;;;0.90;0.75;;;8.40;98.80;;;;;;5061193;28;20066;-48
2022/01/30 07:24:26;;;;;;;0.60;0.60;;;8.40;98.90;;;;;;5061498;28;20071;-48
2022/01/30 07:26:52;;;;;;;4.45;1.08;;;8.40;98.90;;;;;;5062529;28;20024;-48
2022/01/30 07:29:17;;;;;;;2.13;0.90;;;8.40;98.90;;;;;;5056915;28;20017;-49
2022/01/30 07:31:43;;;;;;;0.98;0.88;;;8.40;98.90;;;;;;5062389;28;20037;-48
2022/01/30 07:34:09;;;;;;;6.65;0.80;;;8.40;98.90;;;;;;5063691;28;20151;-49
2022/01/30 07:36:35;;;;;;;6.38;0.93;;;8.40;98.90;;;;;;5057597;28;20032;-49
2022/01/30 07:39:05;;;;;;;1.52;0.77;;;8.40;98.90;;;;;;5064448;28;20039;-49
2022/01/30 07:41:31;;;;;;;4.05;1.60;;;8.40;98.90;;;;;;5055459;28;20165;-48
2022/01/30 07:43:57;;;;;;;1.23;0.93;;;8.40;98.90;;;;;;5057747;28;20062;-48
2022/01/30 07:46:22;;;;;;;2.05;1.20;;;8.40;98.90;;;;;;5062080;28;20104;-48
2022/01/30 07:48:48;;;;;;;4.97;1.48;;;8.40;98.90;;;;;;5062689;28;20163;-48
2022/01/30 07:51:13;;;;;;;6.22;1.40;;;8.40;98.90;;;;;;5063964;28;20021;-48
2022/01/30 07:53:39;;;;;;;7.80;1.35;;;8.40;98.80;;;;;;5061842;28;20198;-48
2022/01/30 07:56:04;;;;;;;2.22;1.30;;;8.40;98.90;;;;;;5064728;28;20033;-48
2022/01/30 07:58:30;;;;;;;3.33;1.45;;;8.40;98.80;;;;;;5054678;28;20508;-48
2022/01/30 08:00:56;;;;;;;10.80;1.60;;;8.40;98.80;;;;;;5060127;28;20029;-48
2022/01/30 08:03:22;;;;;;;7.07;1.65;;;8.40;98.80;;;;;;5061869;28;20489;-49
2022/01/30 08:05:48;;;;;;;4.13;1.42;;;8.40;98.80;;;;;;5061286;28;20033;-48
2022/01/30 08:08:14;;;;;;;4.07;1.42;;;8.40;98.80;;;;;;5063030;28;20029;-48
2022/01/30 08:10:39;;;;;;;5.65;1.77;;;8.40;98.80;;;;;;5064130;28;20492;-48
2022/01/30 08:13:05;;;;;;;8.55;1.77;;;8.40;98.80;;;;;;5057313;28;20027;-48
2022/01/30 08:15:31;;;;;;;7.28;1.15;;;8.40;98.80;;;;;;5058727;28;20350;-48
2022/01/30 08:17:56;;;;;;;12.15;1.63;;;8.40;98.80;;;;;;5060852;28;20049;-48
2022/01/30 08:20:25;;;;;;;4.70;1.83;;;8.40;98.70;;;;;;5060519;28;20478;-48
2022/01/30 08:22:53;;;;;;;1.52;1.13;;;8.40;98.70;;;;;;5059509;28;20029;-49
2022/01/30 08:25:19;;;;;;;9.30;2.05;;;8.40;98.70;;;;;;5061688;28;20036;-49
2022/01/30 08:27:45;;;;;;;7.93;1.70;;;8.40;98.70;;;;;;5059689;28;20396;-48
2022/01/30 08:30:11;;;;;;;4.60;0.85;;;8.40;98.70;;;;;;5058513;28;20099;-48
2022/01/30 08:32:49;;;;;;;5.13;1.60;;;8.40;98.70;;;;;;5060622;28;20056;-49
2022/01/30 08:35:16;;;;;;;3.22;1.88;;;8.40;98.70;;;;;;5050154;28;20021;-49
2022/01/30 08:37:42;;;;;;;4.70;1.60;;;8.40;98.70;;;;;;5066137;28;20098;-49
2022/01/30 08:40:14;;;;;;;11.20;2.15;;;8.40;98.70;;;;;;5070206;28;20139;-48
2022/01/30 08:42:40;;;;;;;3.33;1.67;;;8.40;98.70;;;;;;5066870;28;20024;-50
2022/01/30 08:45:08;;;;;;;5.43;1.20;;;8.40;98.60;;;;;;5062091;28;20021;-50
2022/01/30 08:47:34;;;;;;;5.72;1.55;;;8.40;98.20;;;;;;5067154;28;20123;-50
2022/01/30 08:50:00;;;;;;;9.85;2.80;;;8.40;97.50;;;;;;5070470;28;20112;-50
2022/01/30 08:52:26;;;;;;;1.88;1.35;;;8.30;97.50;;;;;;5069799;28;20032;-50
2022/01/30 08:54:52;;;;;;;8.25;1.88;;;8.30;97.70;;;;;;5066359;28;20543;-50
2022/01/30 08:57:18;;;;;;;4.78;1.80;;;8.30;97.10;;;;;;5070004;28;20093;-48
2022/01/30 08:59:45;;;;;;;4.40;1.33;;;8.30;97.10;;;;;;5065091;28;20041;-48
2022/01/30 09:02:11;;;;;;;15.00;2.13;;;8.30;97.40;;;;;;5069236;28;20029;-48
2022/01/30 09:04:36;;;;;;;5.88;1.42;;;8.30;97.50;;;;;;5066316;28;20056;-49
2022/01/30 09:07:02;;;;;;;3.72;1.45;;;8.30;97.50;;;;;;5065088;28;20032;-48
2022/01/30 09:09:30;;;;;;;6.70;1.95;;;8.30;97.50;;;;;;5060776;28;20016;-49
2022/01/30 09:11:58;;;;;;;8.40;1.48;;;8.30;97.80;;;;;;5067236;28;20381;-48
2022/01/30 09:14:25;;;;;;;1.75;1.17;;;8.40;97.50;;;;;;5063684;28;20024;-48
2022/01/30 09:16:51;;;;;;;10.40;2.17;;;8.40;97.50;;;;;;5067817;28;20585;-49
2022/01/30 09:19:17;;;;;;;5.65;2.03;;;8.30;97.50;;;;;;5066282;28;20127;-49
2022/01/30 09:21:42;;;;;;;19.05;2.00;;;8.40;97.60;;;;;;5068659;28;20028;-48
2022/01/30 09:24:08;;;;;;;9.88;2.15;;;8.40;97.60;;;;;;5068813;28;20037;-48
2022/01/30 09:26:34;;;;;;;9.40;2.03;;;8.40;97.60;;;;;;5068027;28;20032;-48
2022/01/30 09:28:59;;;;;;;8.88;1.88;;;8.40;97.60;;;;;;5065673;28;20039;-48
2022/01/30 09:31:25;;;;;;;9.23;1.33;;;8.40;97.70;;;;;;5069340;28;20040;-48
2022/01/30 09:33:52;;;;;;;4.80;1.90;;;8.40;97.60;;;;;;5070269;28;20020;-48
2022/01/30 09:36:17;;;;;;;9.57;1.80;;;8.40;97.70;;;;;;5069658;28;20038;-48
2022/01/30 09:38:43;;;;;;;7.03;2.30;;;8.40;97.70;;;;;;5068385;28;20040;-48
2022/01/30 09:41:09;;;;;;;15.95;4.40;;;8.40;97.80;;;;;;5064923;28;20037;-48
2022/01/30 09:43:35;;;;;;;8.90;1.75;;;8.40;97.80;;;;;;5065137;28;20441;-48
2022/01/30 09:46:03;;;;;;;6.50;1.60;;;8.40;97.80;;;;;;5066480;28;20029;-48
2022/01/30 09:48:33;;;;;;;9.18;1.25;;;8.40;97.80;;;;;;5069579;28;20029;-49
2022/01/30 09:51:00;;;;;;;;;;;8.40;97.50;;;;;;5070334;28;20032;-49
2022/01/30 09:53:25;;;;;;;4.57;1.95;;;8.40;97.30;;;;;;5069367;28;19908;-50
2022/01/30 09:55:51;;;;;;;3.53;1.92;;;8.40;97.10;;;;;;5065383;28;20204;-51
2022/01/30 09:58:17;;;;;;;6.53;1.85;;;8.40;97.10;;;;;;5068543;28;20043;-51
2022/01/30 10:00:44;;;;;;;7.00;1.52;;;8.40;96.70;;;;;;5061827;28;20041;-50
2022/01/30 10:03:10;;;;;;;4.65;1.27;;;8.30;96.70;;;;;;5067483;28;20028;-50
2022/01/30 10:05:37;;;;;;;7.82;1.67;;;8.30;96.50;;;;;;5058027;28;20028;-50
2022/01/30 10:08:04;;;;;;;5.40;1.75;;;8.30;96.30;;;;;;5071500;28;20462;-51
2022/01/30 10:10:30;;;;;;;2.45;1.33;;;8.30;96.30;;;;;;5064421;28;20025;-50
2022/01/30 10:13:09;;;;;;;6.30;2.53;;;8.30;96.00;;;;;;5061082;28;20028;-51
2022/01/30 10:15:56;;;;;;;2.88;1.30;;;8.30;96.00;;;;;;5057354;28;20265;-50
2022/01/30 10:18:23;;;;;;;17.35;2.05;;;8.30;95.90;;;;;;5055320;28;20037;-50
2022/01/30 10:20:49;;;;;;;5.65;1.25;;;8.30;95.70;;;;;;5065990;28;20324;-50
2022/01/30 10:23:15;;;;;;;8.70;1.65;;;8.30;95.80;;;;;;5065222;28;20463;-50
2022/01/30 10:25:47;;;;;;;2.05;0.95;;;8.40;95.90;;;;;;5068045;28;20020;-50
2022/01/30 10:28:15;;;;;;;6.35;1.40;;;8.40;95.80;;;;;;5060339;28;20086;-50
2022/01/30 10:30:48;;;;;;;15.88;2.25;;;8.40;95.70;;;;;;5065543;28;20025;-50
2022/01/30 10:33:16;;;;;;;7.65;2.25;;;8.40;95.70;;;;;;5058827;28;20225;-50
2022/01/30 10:36:00;;;;;;;5.82;1.88;;;8.40;95.70;;;;;;5064700;28;20016;-50
2022/01/30 10:38:32;;;;;;;7.70;2.50;;;8.40;95.50;;;;;;5062762;28;20036;-50
2022/01/30 10:41:10;;;;;;;6.40;1.50;;;8.50;95.20;;;;;;5062732;28;20029;-50
2022/01/30 10:43:55;;;;;;;7.72;2.97;;;8.50;94.90;;;;;;5063264;28;20033;-50
2022/01/30 10:46:25;;;;;;;5.88;2.47;;;8.50;94.90;;;;;;5056552;28;20029;-50
2022/01/30 10:48:56;;;;;;;5.53;1.48;;;8.50;94.80;;;;;;5062499;28;20025;-50
2022/01/30 10:51:23;;;;;;;5.68;1.67;;;8.50;94.90;;;;;;5059975;28;20036;-50
2022/01/30 10:53:50;;;;;;;18.35;1.85;;;8.60;95.00;;;;;;5062123;28;20025;-50
2022/01/30 10:56:41;;;;;;;4.45;1.80;;;8.60;94.80;;;;;;5058404;28;20072;-50
2022/01/30 10:59:20;;;;;;;4.93;1.65;;;8.70;94.60;;;;;;5061211;28;20037;-50
2022/01/30 11:01:48;;;;;;;5.80;1.98;;;8.70;94.60;;;;;;5057045;28;20227;-50
2022/01/30 11:04:22;;;;;;;14.13;1.80;;;8.70;94.40;;;;;;5060117;28;20446;-50
2022/01/30 11:06:48;;;;;;;3.85;1.73;;;8.70;94.20;;;;;;5061656;28;20028;-50
2022/01/30 11:09:19;;;;;;;3.88;1.50;;;8.60;94.10;;;;;;5061523;28;20017;-49
2022/01/30 11:11:50;;;;;;;5.25;1.77;;;8.70;94.00;;;;;;5058702;28;20403;-50
2022/01/30 11:14:20;;;;;;;5.47;2.17;;;8.70;93.90;;;;;;5063432;28;20071;-49
2022/01/30 11:17:05;;;;;;;8.18;1.90;;;8.60;94.10;;;;;;5055641;28;20109;-50
2022/01/30 11:19:33;;;;;;;3.35;1.38;;;8.70;94.00;;;;;;5061708;28;20037;-50
2022/01/30 11:22:10;;;;;;;6.13;2.53;;;8.70;93.80;;;;;;5061901;28;20028;-49
2022/01/30 11:24:58;;;;;;;7.90;2.28;;;8.70;93.80;;;;;;5059237;28;20072;-50
2022/01/30 11:27:24;;;;;;;8.52;2.67;;;8.70;93.80;;;;;;5062369;28;20025;-49
2022/01/30 11:29:51;;;;;;;5.18;1.58;;;8.70;93.90;;;;;;5059351;28;20028;-50
2022/01/30 11:32:19;;;;;;;7.13;1.70;;;8.70;93.80;;;;;;5060243;28;20054;-50
2022/01/30 11:34:45;;;;;;;8.50;1.75;;;8.70;93.90;;;;;;5065289;28;20051;-50
2022/01/30 11:37:16;;;;;;;3.88;1.38;;;8.70;93.80;;;;;;5060674;28;20111;-50
2022/01/30 11:39:45;;;;;;;2.60;1.40;;;8.70;94.00;;;;;;5064603;28;20090;-49
2022/01/30 11:42:23;;;;;;;9.45;2.05;;;8.70;93.90;;;;;;5059700;28;20064;-50
2022/01/30 11:45:09;;;;;;;8.90;2.75;;;8.70;93.70;;;;;;5060694;28;20032;-50
2022/01/30 11:47:44;;;;;;;7.00;1.80;;;8.70;93.10;;;;;;5063138;28;20025;-50
2022/01/30 11:50:11;;;;;;;5.78;1.77;;;8.70;93.20;;;;;;5061053;28;20036;-50
2022/01/30 11:52:58;;;;;;;6.93;1.45;;;8.70;93.00;;;;;;5059198;28;20028;-50
2022/01/30 11:55:49;;;;;;;6.22;1.58;;;8.60;93.10;;;;;;5059551;28;20029;-50
2022/01/30 11:58:33;;;;;;;7.82;1.48;;;8.70;93.00;;;;;;5059851;28;20040;-50
2022/01/30 12:01:00;;;;;;;3.63;1.45;;;8.70;93.40;;;;;;5063572;28;20660;-49
2022/01/30 12:03:28;;;;;;;10.20;2.35;;;8.70;93.30;;;;;;5057299;28;20056;-50
2022/01/30 12:05:56;;;;;;;8.38;1.27;;;8.70;93.40;;;;;;5056536;28;20040;-50
2022/01/30 12:08:55;;;;;;;7.35;1.60;;;8.70;92.60;;;;;;5059510;28;20028;-50
2022/01/30 12:11:43;;;;;;;6.15;1.40;;;8.80;93.00;;;;;;5097228;28;20036;-50
2022/01/30 12:14:10;;;;;;;5.97;1.95;;;8.80;92.30;;;;;;5096750;28;20036;-50
2022/01/30 12:16:48;;;;;;;7.03;1.27;;;8.70;91.60;;;;;;5097507;28;20047;-50
2022/01/30 12:19:18;;;;;;;5.85;1.77;;;8.70;91.30;;;;;;5094677;28;20406;-50
2022/01/30 12:21:44;;;;;;;3.70;0.98;;;8.70;91.90;;;;;;5101250;28;20144;-50
2022/01/30 12:24:27;;;;;;;5.38;1.50;;;8.70;91.00;;;;;;5103033;28;20161;-49
2022/01/30 12:26:55;;;;;;;10.43;1.98;;;8.80;91.30;;;;;;5100075;28;20792;-50
2022/01/30 12:29:46;;;;;;;2.05;0.90;;;8.80;92.00;;;;;;5101806;28;20024;-50
2022/01/30 12:32:34;;;;;;;12.38;1.80;;;8.80;90.90;;;;;;5100005;28;20032;-49
2022/01/30 12:35:00;;;;;;;4.40;1.77;;;8.80;91.90;;;;;;5095790;28;20357;-49
2022/01/30 12:37:36;;;;;;;11.02;1.60;;;8.80;91.10;;;;;;5098799;28;20076;-50
2022/01/30 12:40:23;;;;;;;5.15;1.08;;;8.80;91.30;;;;;;5101262;28;20100;-50
2022/01/30 12:42:49;;;;;;;3.55;1.00;;;8.80;91.70;;;;;;5104824;28;20012;-49
2022/01/30 12:45:15;;;;;;;3.67;1.30;;;8.80;91.20;;;;;;5108019;28;20042;-49
2022/01/30 12:47:52;;;;;;;4.25;1.58;;;8.80;91.20;;;;;;5071101;28;20136;-50
2022/01/30 12:50:20;;;;;;;4.25;1.70;;;8.80;91.40;;;;;;5065117;28;20024;-50
2022/01/30 12:52:52;;;;;;;3.95;1.08;;;8.90;90.40;;;;;;5065133;28;20361;-49
2022/01/30 12:55:18;;;;;;;7.60;1.98;;;8.80;90.30;;;;;;5064200;28;20029;-49
2022/01/30 12:57:46;;;;;;;3.55;0.98;;;8.90;90.40;;;;;;5058683;28;20044;-49
2022/01/30 13:00:14;;;;;;;2.25;1.00;;;8.80;91.10;;;;;;5065358;28;20517;-50
2022/01/30 13:02:59;;;;;;;12.30;1.88;;;8.80;90.40;;;;;;5056340;28;20037;-49
2022/01/30 13:05:26;;;;;;;4.43;1.42;;;8.90;89.80;;;;;;5062814;28;20124;-49
2022/01/30 13:07:56;;;;;;;2.45;1.10;;;8.80;90.40;;;;;;5063718;28;20435;-49
2022/01/30 13:10:23;;;;;;;7.43;1.27;;;8.90;89.50;;;;;;5057066;28;20164;-50
2022/01/30 13:12:50;;;;;;;7.30;1.52;;;8.90;90.10;;;;;;5063417;28;20369;-49
2022/01/30 13:15:24;;;;;;;5.70;1.60;;;8.90;89.80;;;;;;5064013;28;20059;-50
2022/01/30 13:17:51;;;;;;;14.63;1.73;;;8.90;89.60;;;;;;5058751;28;20126;-49
2022/01/30 13:20:22;;;;;;;18.52;1.35;;;8.90;88.90;;;;;;5065736;28;20123;-50
2022/01/30 13:22:50;;;;;;;9.73;1.38;;;8.90;89.60;;;;;;5065897;28;20153;-50
2022/01/30 13:25:19;;;;;;;2.65;1.67;;;8.90;88.20;;;;;;5062239;28;20087;-50
2022/01/30 13:27:53;;;;;;;6.25;1.77;;;8.90;86.30;;;;;;5059781;28;20127;-50
2022/01/30 13:30:24;;;;;;;5.22;1.73;;;8.90;87.90;;;;;;5062642;28;20075;-49
2022/01/30 13:32:51;;;;;;;4.65;1.58;;;8.90;86.60;;;;;;5054375;28;20030;-50
2022/01/30 13:35:20;;;;;;;3.25;1.08;;;8.80;88.00;;;;;;5060705;28;20047;-50
2022/01/30 13:37:46;;;;;;;0.85;0.68;;;8.90;88.20;;;;;;5055328;28;20052;-50
2022/01/30 13:40:19;;;;;;;1.73;0.82;;;8.80;89.40;;;;;;5060778;28;20179;-49
2022/01/30 13:48:01;;;;;;;4.38;1.67;;;8.90;88.00;;;;;;5053997;28;20103;-49
2022/01/30 13:50:52;;;;;;;10.57;1.95;;;8.90;85.00;;;;;;5063685;28;20390;-49
2022/01/30 13:53:21;;;;;;;4.88;1.77;;;8.80;89.80;;;;;;5056809;28;20033;-49
2022/01/30 13:56:16;;;;;;;9.05;1.33;;;8.80;87.10;;;;;;5061945;28;20025;-49
2022/01/30 13:58:46;;;;;;;1.40;1.25;;;8.80;87.00;;;;;;5070930;28;20071;-49
2022/01/30 14:01:19;;;;;;;3.45;2.42;;;8.90;88.00;;;;;;5063557;28;20372;-50
2022/01/30 14:03:46;;;;;;;10.40;1.52;;;8.90;87.10;;;;;;5065349;28;20139;-51
2022/01/30 14:06:20;;;;;;;6.22;1.95;;;8.90;87.40;;;;;;5061131;28;20041;-50
2022/01/30 14:09:03;;;;;;;3.92;1.23;;;8.90;85.10;;;;;;5066845;28;20055;-49
2022/01/30 14:11:38;;;;;;;5.57;1.20;;;8.90;86.70;;;;;;5059164;28;20082;-49
2022/01/30 14:14:05;;;;;;;12.45;1.33;;;8.80;85.70;;;;;;5069602;28;20112;-49
2022/01/30 14:16:43;;;;;;;6.47;2.70;;;8.90;85.30;;;;;;5064978;28;20389;-50
2022/01/30 14:19:24;;;;;;;1.98;1.13;;;8.90;86.10;;;;;;5063540;28;20102;-49